Cyprus Cement — C6UP5 — position and weather

sailwx.info

Track history (hours):
 
Tides and Currents Weather Stations Pressure Air Temp Water Temp Dewpoint Dewpoint Depression Visibility Wind Speed Wind Dir Waves Ship Positions

Cyprus Cement

Last reported at 2016-Feb-10 06:33 UTC. Time now 2016-Dec-02 18:10 UTC.
Position N 55°38' E 013°01'.
Warning: this ship's position is months out of date.

Length 97 m; draft 7.1 m.

Type: Cargo ship. MMSI: 311988000.

Date/timePositionNaut miles runAvg speedWind from/ knotsBaromVisibWave heightAir tempDewpointWater temp
2016-Feb-10 06:33N 55°38' E 013°01'0 0.0
2016-Feb-10 05:30N 55°38' E 013°01'1 0.8
2016-Feb-10 04:33N 55°37' E 012°60'4 3.9
2016-Feb-10 03:33N 55°37' E 012°53'9 9.2
2016-Feb-10 02:33N 55°29' E 012°43'9 9.4
2016-Feb-10 01:33N 55°20' E 012°40'9 9.1
2016-Feb-10 00:34N 55°11' E 012°39'9 9.2
2016-Feb-09 23:33N 55°02' E 012°39'11 9.0
2016-Feb-09 22:18N 54°51' E 012°33'7 9.4
2016-Feb-09 21:34N 54°45' E 012°27'10 9.5
2016-Feb-09 20:33N 54°37' E 012°19'10 9.6
2016-Feb-09 19:33N 54°27' E 012°14'10 9.8
2016-Feb-09 18:33N 54°25' E 011°58'1110.7
2016-Feb-09 17:33N 54°27' E 011°39'1111.4
2016-Feb-09 16:33N 54°32' E 011°22'1111.3
2016-Feb-09 15:33N 54°35' E 011°03'1211.9
2016-Feb-09 14:34N 54°34' E 010°43'1211.6
2016-Feb-09 13:33N 54°31' E 010°23'1010.1
2016-Feb-09 12:33N 54°23' E 010°12'3 2.8
2016-Feb-09 11:33N 54°22' E 010°08'6 5.8
2016-Feb-09 10:33N 54°21' E 009°58'7 6.9
2016-Feb-09 09:33N 54°21' E 009°46'31 7.8
2016-Feb-09 05:33N 53°57' E 009°13'4 4.1
2016-Feb-09 04:33N 53°54' E 009°09'2 2.4
2016-Feb-09 03:33N 53°53' E 009°05'7 7.5
2016-Feb-09 02:33N 53°50' E 008°53'1010.5
2016-Feb-09 01:33N 53°57' E 008°39'1010.4
2016-Feb-09 00:33N 53°59' E 008°21'1111.3
2016-Feb-08 23:33N 53°59' E 008°02'1212.1
2016-Feb-08 22:34N 53°56' E 007°42'1212.4
2016-Feb-08 21:33N 53°53' E 007°22'1312.8
2016-Feb-08 20:33N 53°50' E 007°01'1313.0
2016-Feb-08 19:33N 53°47' E 006°39'1211.7
2016-Feb-08 18:33N 53°40' E 006°23'6 6.3
2016-Feb-08 17:33N 53°37' E 006°31'8 8.1
2016-Feb-08 16:34N 53°33' E 006°43'5 5.2
2016-Feb-08 15:34N 53°29' E 006°49'3 2.8
2016-Feb-08 14:31N 53°27' E 006°51'0 0.0
2016-Feb-08 13:31N 53°27' E 006°51'0 0.0
2016-Feb-08 12:31N 53°27' E 006°51'0 0.0
2016-Feb-08 11:31N 53°27' E 006°51'0 0.0
2016-Feb-08 10:31N 53°27' E 006°51'0 0.0
2016-Feb-08 09:31N 53°27' E 006°51'0 0.0
2016-Feb-08 08:32N 53°27' E 006°51'0 0.0
2016-Feb-08 07:31N 53°27' E 006°51'0 0.0
2016-Feb-08 06:31N 53°27' E 006°51'0 0.0
2016-Feb-08 05:31N 53°27' E 006°51'0 0.0
2016-Feb-08 04:31N 53°27' E 006°51'0 0.0
2016-Feb-08 03:31N 53°27' E 006°51'0 0.0
2016-Feb-08 02:31N 53°27' E 006°51'0 0.0
2016-Feb-08 01:31N 53°27' E 006°51'0 0.0
2016-Feb-08 00:32N 53°27' E 006°51'0 0.0
2016-Feb-07 23:31N 53°27' E 006°51'0 0.0
2016-Feb-07 22:32N 53°27' E 006°51'0 0.0
2016-Feb-07 21:31N 53°27' E 006°51'0 0.0
2016-Feb-07 20:34N 53°27' E 006°51'0 0.0
2016-Feb-07 19:33N 53°27' E 006°51'0 0.0
2016-Feb-07 18:31N 53°27' E 006°51'0 0.0
2016-Feb-07 17:32N 53°27' E 006°51'0 0.0
2016-Feb-07 16:28N 53°27' E 006°51'0 0.0
2016-Feb-07 15:33N 53°27' E 006°51'0 0.0
2016-Feb-07 14:31N 53°27' E 006°51'0 0.0
2016-Feb-07 13:31N 53°27' E 006°51'0 0.0
2016-Feb-07 12:32N 53°27' E 006°51'0 0.0
2016-Feb-07 11:30N 53°27' E 006°51'0 0.0
2016-Feb-07 10:33N 53°27' E 006°51'0 0.0
2016-Feb-07 09:33N 53°27' E 006°51'0 0.0
2016-Feb-07 08:31N 53°27' E 006°51'0 0.0
2016-Feb-07 07:31N 53°27' E 006°51'0 0.0
2016-Feb-07 06:31N 53°27' E 006°51'0 0.0
2016-Feb-07 05:31N 53°27' E 006°51'0 0.0
2016-Feb-07 04:33N 53°27' E 006°51'0 0.0
2016-Feb-07 03:32N 53°27' E 006°51'0 0.0
2016-Feb-07 02:31N 53°27' E 006°51'0 0.0
2016-Feb-07 01:31N 53°27' E 006°51'0 0.0
2016-Feb-07 00:32N 53°27' E 006°51'0 0.1
2016-Feb-06 23:33N 53°27' E 006°51'7 7.4
2016-Feb-06 22:33N 53°32' E 006°43'1010.3
2016-Feb-06 21:33N 53°37' E 006°28'8 7.9
2016-Feb-06 20:33N 53°43' E 006°21'9 9.0
2016-Feb-06 19:33N 53°51' E 006°30'1111.1
2016-Feb-06 18:33N 53°54' E 006°48'1110.9
2016-Feb-06 17:34N 53°56' E 007°06'1111.2
2016-Feb-06 16:33N 53°59' E 007°24'1212.1
2016-Feb-06 15:33N 54°02' E 007°44'1312.7
2016-Feb-06 14:33N 54°01' E 008°06'1413.8
2016-Feb-06 13:33N 53°59' E 008°29'1313.4
2016-Feb-06 12:33N 53°51' E 008°47'1211.8
2016-Feb-06 11:33N 53°53' E 009°07'1 1.4
2016-Feb-06 10:33N 53°54' E 009°09'8 7.6
2016-Feb-06 09:32N 53°60' E 009°17'25 4.7
2016-Feb-06 04:20N 54°19' E 009°43'2 2.3
2016-Feb-06 03:34N 54°20' E 009°45'7 6.7
2016-Feb-06 02:34N 54°20' E 009°56'7 7.2
2016-Feb-06 01:33N 54°22' E 010°08'1 1.4
2016-Feb-06 00:33N 54°23' E 010°11'3 3.2
2016-Feb-05 23:34N 54°25' E 010°13'1111.1
2016-Feb-05 22:34N 54°32' E 010°28'1211.9
2016-Feb-05 21:34N 54°35' E 010°48'1211.9
2016-Feb-05 20:33N 54°36' E 011°08'1212.0
2016-Feb-05 19:33N 54°31' E 011°27'1212.3
2016-Feb-05 18:33N 54°27' E 011°47'1212.0
2016-Feb-05 17:33N 54°27' E 012°08'1111.5
2016-Feb-05 16:33N 54°38' E 012°16'2811.4
2016-Feb-05 14:06N 55°03' E 012°38'612.0
2016-Feb-05 13:33N 55°09' E 012°38'1211.8
2016-Feb-05 12:33N 55°21' E 012°38'1111.3
2016-Feb-05 11:34N 55°31' E 012°45'10 9.8
2016-Feb-05 10:33N 55°38' E 012°58'2 1.6
2016-Feb-05 09:32N 55°38' E 013°01'0 0.0
2016-Feb-05 08:26N 55°38' E 013°01'0 0.0
2016-Feb-05 07:23N 55°38' E 013°01'0 0.0
2016-Feb-05 06:32N 55°38' E 013°01'0 0.0
2016-Feb-05 05:32N 55°38' E 013°01'0 0.0
2016-Feb-05 04:32N 55°38' E 013°01'0 0.0
2016-Feb-05 03:29N 55°38' E 013°01'0 0.0
2016-Feb-05 02:32N 55°38' E 013°01'0 0.0
2016-Feb-05 01:32N 55°38' E 013°01'0 0.0
2016-Feb-05 00:32N 55°38' E 013°01'0 0.0
2016-Feb-04 23:29N 55°38' E 013°01'0 0.0
2016-Feb-04 22:32N 55°38' E 013°01'0 0.0
2016-Feb-04 21:32N 55°38' E 013°01'0 0.0
2016-Feb-04 20:32N 55°38' E 013°01'0 0.0
2016-Feb-04 19:32N 55°38' E 013°01'0 0.0
2016-Feb-04 18:17N 55°38' E 013°01'0 0.0
2016-Feb-04 17:26N 55°38' E 013°01'0 0.0
2016-Feb-04 16:32N 55°38' E 013°01'0 0.0
2016-Feb-04 15:20N 55°38' E 013°01'0 0.0
2016-Feb-04 14:23N 55°38' E 013°01'0 0.0
2016-Feb-04 13:32N 55°38' E 013°01'0 0.0
2016-Feb-04 12:20N 55°38' E 013°01'0 0.0
2016-Feb-04 11:32N 55°38' E 013°01'0 0.0
2016-Feb-04 10:26N 55°38' E 013°01'0 0.0
2016-Feb-04 09:32N 55°38' E 013°01'0 0.0
2016-Feb-04 08:32N 55°38' E 013°01'0 0.0
2016-Feb-04 07:32N 55°38' E 013°01'0 0.0
2016-Feb-04 06:29N 55°38' E 013°01'0 0.0
2016-Feb-04 05:32N 55°38' E 013°01'0 0.1
2016-Feb-04 04:33N 55°38' E 013°01'6 5.6
2016-Feb-04 03:33N 55°36' E 012°51'8 7.8
2016-Feb-04 02:34N 55°30' E 012°43'9 9.2
2016-Feb-04 01:32N 55°20' E 012°40'9 8.6
2016-Feb-04 00:33N 55°16' E 012°52'9 9.1
2016-Feb-03 23:33N 55°15' E 013°09'10 9.4
2016-Feb-03 22:31N 55°15' E 013°26'9 9.5
2016-Feb-03 21:33N 55°14' E 013°42'9 9.5
2016-Feb-03 20:33N 55°14' E 013°58'9 9.2
2016-Feb-03 19:33N 55°13' E 014°14'10 9.8
2016-Feb-03 18:34N 55°20' E 014°26'1111.2
2016-Feb-03 17:33N 55°28' E 014°40'1111.0
2016-Feb-03 16:33N 55°34' E 014°57'1010.2
2016-Feb-03 15:33N 55°39' E 015°13'  
Track history (hours):
 
Tides and Currents Weather Stations Pressure Air Temp Water Temp Dewpoint Dewpoint Depression Visibility Wind Speed Wind Dir Waves Ship Positions

Cyprus Cement

Last reported at 2016-Feb-10 06:33 UTC. Time now 2016-Dec-02 18:10 UTC.
Position N 55°38' E 013°01'.
Warning: this ship's position is months out of date.

Length 97 m; draft 7.1 m.

Type: Cargo ship. MMSI: 311988000.

Date/timePositionNaut miles runAvg speedWind from/ knotsBaromVisibWave heightAir tempDewpointWater temp
2016-Feb-10 06:33N 55°38' E 013°01'0 0.0
2016-Feb-10 05:30N 55°38' E 013°01'1 0.8
2016-Feb-10 04:33N 55°37' E 012°60'4 3.9
2016-Feb-10 03:33N 55°37' E 012°53'9 9.2
2016-Feb-10 02:33N 55°29' E 012°43'9 9.4
2016-Feb-10 01:33N 55°20' E 012°40'9 9.1
2016-Feb-10 00:34N 55°11' E 012°39'9 9.2
2016-Feb-09 23:33N 55°02' E 012°39'11 9.0
2016-Feb-09 22:18N 54°51' E 012°33'7 9.4
2016-Feb-09 21:34N 54°45' E 012°27'10 9.5
2016-Feb-09 20:33N 54°37' E 012°19'10 9.6
2016-Feb-09 19:33N 54°27' E 012°14'10 9.8
2016-Feb-09 18:33N 54°25' E 011°58'1110.7
2016-Feb-09 17:33N 54°27' E 011°39'1111.4
2016-Feb-09 16:33N 54°32' E 011°22'1111.3
2016-Feb-09 15:33N 54°35' E 011°03'1211.9
2016-Feb-09 14:34N 54°34' E 010°43'1211.6
2016-Feb-09 13:33N 54°31' E 010°23'1010.1
2016-Feb-09 12:33N 54°23' E 010°12'3 2.8
2016-Feb-09 11:33N 54°22' E 010°08'6 5.8
2016-Feb-09 10:33N 54°21' E 009°58'7 6.9
2016-Feb-09 09:33N 54°21' E 009°46'31 7.8
2016-Feb-09 05:33N 53°57' E 009°13'4 4.1
2016-Feb-09 04:33N 53°54' E 009°09'2 2.4
2016-Feb-09 03:33N 53°53' E 009°05'7 7.5
2016-Feb-09 02:33N 53°50' E 008°53'1010.5
2016-Feb-09 01:33N 53°57' E 008°39'1010.4
2016-Feb-09 00:33N 53°59' E 008°21'1111.3
2016-Feb-08 23:33N 53°59' E 008°02'1212.1
2016-Feb-08 22:34N 53°56' E 007°42'1212.4
2016-Feb-08 21:33N 53°53' E 007°22'1312.8
2016-Feb-08 20:33N 53°50' E 007°01'1313.0
2016-Feb-08 19:33N 53°47' E 006°39'1211.7
2016-Feb-08 18:33N 53°40' E 006°23'6 6.3
2016-Feb-08 17:33N 53°37' E 006°31'8 8.1
2016-Feb-08 16:34N 53°33' E 006°43'5 5.2
2016-Feb-08 15:34N 53°29' E 006°49'3 2.8
2016-Feb-08 14:31N 53°27' E 006°51'0 0.0
2016-Feb-08 13:31N 53°27' E 006°51'0 0.0
2016-Feb-08 12:31N 53°27' E 006°51'0 0.0
2016-Feb-08 11:31N 53°27' E 006°51'0 0.0
2016-Feb-08 10:31N 53°27' E 006°51'0 0.0
2016-Feb-08 09:31N 53°27' E 006°51'0 0.0
2016-Feb-08 08:32N 53°27' E 006°51'0 0.0
2016-Feb-08 07:31N 53°27' E 006°51'0 0.0
2016-Feb-08 06:31N 53°27' E 006°51'0 0.0
2016-Feb-08 05:31N 53°27' E 006°51'0 0.0
2016-Feb-08 04:31N 53°27' E 006°51'0 0.0
2016-Feb-08 03:31N 53°27' E 006°51'0 0.0
2016-Feb-08 02:31N 53°27' E 006°51'0 0.0
2016-Feb-08 01:31N 53°27' E 006°51'0 0.0
2016-Feb-08 00:32N 53°27' E 006°51'0 0.0
2016-Feb-07 23:31N 53°27' E 006°51'0 0.0
2016-Feb-07 22:32N 53°27' E 006°51'0 0.0
2016-Feb-07 21:31N 53°27' E 006°51'0 0.0
2016-Feb-07 20:34N 53°27' E 006°51'0 0.0
2016-Feb-07 19:33N 53°27' E 006°51'0 0.0
2016-Feb-07 18:31N 53°27' E 006°51'0 0.0
2016-Feb-07 17:32N 53°27' E 006°51'0 0.0
2016-Feb-07 16:28N 53°27' E 006°51'0 0.0
2016-Feb-07 15:33N 53°27' E 006°51'0 0.0
2016-Feb-07 14:31N 53°27' E 006°51'0 0.0
2016-Feb-07 13:31N 53°27' E 006°51'0 0.0
2016-Feb-07 12:32N 53°27' E 006°51'0 0.0
2016-Feb-07 11:30N 53°27' E 006°51'0 0.0
2016-Feb-07 10:33N 53°27' E 006°51'0 0.0
2016-Feb-07 09:33N 53°27' E 006°51'0 0.0
2016-Feb-07 08:31N 53°27' E 006°51'0 0.0
2016-Feb-07 07:31N 53°27' E 006°51'0 0.0
2016-Feb-07 06:31N 53°27' E 006°51'0 0.0
2016-Feb-07 05:31N 53°27' E 006°51'0 0.0
2016-Feb-07 04:33N 53°27' E 006°51'0 0.0
2016-Feb-07 03:32N 53°27' E 006°51'0 0.0
2016-Feb-07 02:31N 53°27' E 006°51'0 0.0
2016-Feb-07 01:31N 53°27' E 006°51'0 0.0
2016-Feb-07 00:32N 53°27' E 006°51'0 0.1
2016-Feb-06 23:33N 53°27' E 006°51'7 7.4
2016-Feb-06 22:33N 53°32' E 006°43'1010.3
2016-Feb-06 21:33N 53°37' E 006°28'8 7.9
2016-Feb-06 20:33N 53°43' E 006°21'9 9.0
2016-Feb-06 19:33N 53°51' E 006°30'1111.1
2016-Feb-06 18:33N 53°54' E 006°48'1110.9
2016-Feb-06 17:34N 53°56' E 007°06'1111.2
2016-Feb-06 16:33N 53°59' E 007°24'1212.1
2016-Feb-06 15:33N 54°02' E 007°44'1312.7
2016-Feb-06 14:33N 54°01' E 008°06'1413.8
2016-Feb-06 13:33N 53°59' E 008°29'1313.4
2016-Feb-06 12:33N 53°51' E 008°47'1211.8
2016-Feb-06 11:33N 53°53' E 009°07'1 1.4
2016-Feb-06 10:33N 53°54' E 009°09'8 7.6
2016-Feb-06 09:32N 53°60' E 009°17'25 4.7
2016-Feb-06 04:20N 54°19' E 009°43'2 2.3
2016-Feb-06 03:34N 54°20' E 009°45'7 6.7
2016-Feb-06 02:34N 54°20' E 009°56'7 7.2
2016-Feb-06 01:33N 54°22' E 010°08'1 1.4
2016-Feb-06 00:33N 54°23' E 010°11'3 3.2
2016-Feb-05 23:34N 54°25' E 010°13'1111.1
2016-Feb-05 22:34N 54°32' E 010°28'1211.9
2016-Feb-05 21:34N 54°35' E 010°48'1211.9
2016-Feb-05 20:33N 54°36' E 011°08'1212.0
2016-Feb-05 19:33N 54°31' E 011°27'1212.3
2016-Feb-05 18:33N 54°27' E 011°47'1212.0
2016-Feb-05 17:33N 54°27' E 012°08'1111.5
2016-Feb-05 16:33N 54°38' E 012°16'2811.4
2016-Feb-05 14:06N 55°03' E 012°38'612.0
2016-Feb-05 13:33N 55°09' E 012°38'1211.8
2016-Feb-05 12:33N 55°21' E 012°38'1111.3
2016-Feb-05 11:34N 55°31' E 012°45'10 9.8
2016-Feb-05 10:33N 55°38' E 012°58'2 1.6
2016-Feb-05 09:32N 55°38' E 013°01'0 0.0
2016-Feb-05 08:26N 55°38' E 013°01'0 0.0
2016-Feb-05 07:23N 55°38' E 013°01'0 0.0
2016-Feb-05 06:32N 55°38' E 013°01'0 0.0
2016-Feb-05 05:32N 55°38' E 013°01'0 0.0
2016-Feb-05 04:32N 55°38' E 013°01'0 0.0
2016-Feb-05 03:29N 55°38' E 013°01'0 0.0
2016-Feb-05 02:32N 55°38' E 013°01'0 0.0
2016-Feb-05 01:32N 55°38' E 013°01'0 0.0
2016-Feb-05 00:32N 55°38' E 013°01'0 0.0
2016-Feb-04 23:29N 55°38' E 013°01'0 0.0
2016-Feb-04 22:32N 55°38' E 013°01'0 0.0
2016-Feb-04 21:32N 55°38' E 013°01'0 0.0
2016-Feb-04 20:32N 55°38' E 013°01'0 0.0
2016-Feb-04 19:32N 55°38' E 013°01'0 0.0
2016-Feb-04 18:17N 55°38' E 013°01'0 0.0
2016-Feb-04 17:26N 55°38' E 013°01'0 0.0
2016-Feb-04 16:32N 55°38' E 013°01'0 0.0
2016-Feb-04 15:20N 55°38' E 013°01'0 0.0
2016-Feb-04 14:23N 55°38' E 013°01'0 0.0
2016-Feb-04 13:32N 55°38' E 013°01'0 0.0
2016-Feb-04 12:20N 55°38' E 013°01'0 0.0
2016-Feb-04 11:32N 55°38' E 013°01'0 0.0
2016-Feb-04 10:26N 55°38' E 013°01'0 0.0
2016-Feb-04 09:32N 55°38' E 013°01'0 0.0
2016-Feb-04 08:32N 55°38' E 013°01'0 0.0
2016-Feb-04 07:32N 55°38' E 013°01'0 0.0
2016-Feb-04 06:29N 55°38' E 013°01'0 0.0
2016-Feb-04 05:32N 55°38' E 013°01'0 0.1
2016-Feb-04 04:33N 55°38' E 013°01'6 5.6
2016-Feb-04 03:33N 55°36' E 012°51'8 7.8
2016-Feb-04 02:34N 55°30' E 012°43'9 9.2
2016-Feb-04 01:32N 55°20' E 012°40'9 8.6
2016-Feb-04 00:33N 55°16' E 012°52'9 9.1
2016-Feb-03 23:33N 55°15' E 013°09'10 9.4
2016-Feb-03 22:31N 55°15' E 013°26'9 9.5
2016-Feb-03 21:33N 55°14' E 013°42'9 9.5
2016-Feb-03 20:33N 55°14' E 013°58'9 9.2
2016-Feb-03 19:33N 55°13' E 014°14'10 9.8
2016-Feb-03 18:34N 55°20' E 014°26'1111.2
2016-Feb-03 17:33N 55°28' E 014°40'1111.0
2016-Feb-03 16:33N 55°34' E 014°57'1010.2
2016-Feb-03 15:33N 55°39' E 015°13'  

Dump ship's entire track history